Time;durP1;ratioP1;P1;durP2;ratioP2;P2;SDS_P1;SDS_P2;PMS_P1;PMS_P2;Temp;Humidity;BMP_temperature;BMP_pressure;BME280_temperature;BME280_humidity;BME280_pressure;Samples;Min_cycle;Max_cycle;Signal;HPM_P1;HPM_P2
2023/06/12 00:01:01;;;;;;;7.43;4.43;;;;;;;;;;5014939;28;20263;-79
2023/06/12 00:03:26;;;;;;;5.55;4.00;;;;;;;;;;5016166;28;20263;-79
2023/06/12 00:05:53;;;;;;;6.03;3.83;;;;;;;;;;5016111;28;20484;-78
2023/06/12 00:08:19;;;;;;;13.85;3.97;;;;;;;;;;5014334;28;20034;-79
2023/06/12 00:10:46;;;;;;;9.52;4.10;;;;;;;;;;5014179;28;20029;-79
2023/06/12 00:13:12;;;;;;;4.95;4.18;;;;;;;;;;5016190;28;20032;-79
2023/06/12 00:15:37;;;;;;;6.97;3.95;;;;;;;;;;5015136;28;20441;-79
2023/06/12 00:18:03;;;;;;;6.30;4.05;;;;;;;;;;5014892;28;20029;-77
2023/06/12 00:20:29;;;;;;;6.88;4.03;;;;;;;;;;5016510;28;20026;-80
2023/06/12 00:22:55;;;;;;;6.78;3.53;;;;;;;;;;5016350;28;20033;-79
2023/06/12 00:25:21;;;;;;;12.93;4.38;;;;;;;;;;5019058;28;20026;-78
2023/06/12 00:27:46;;;;;;;4.10;3.70;;;;;;;;;;5017496;28;20034;-80
2023/06/12 00:30:12;;;;;;;6.70;3.83;;;;;;;;;;5016519;28;20018;-80
2023/06/12 00:32:38;;;;;;;5.65;3.63;;;;;;;;;;5016592;28;20266;-80
2023/06/12 00:35:03;;;;;;;4.70;3.58;;;;;;;;;;5018305;28;20029;-80
2023/06/12 00:37:29;;;;;;;6.70;4.22;;;;;;;;;;5018946;28;20033;-80
2023/06/12 00:39:54;;;;;;;7.38;3.90;;;;;;;;;;5018110;28;20022;-80
2023/06/12 00:42:20;;;;;;;6.50;4.10;;;;;;;;;;5018740;28;20465;-81
2023/06/12 00:44:46;;;;;;;4.53;3.40;;;;;;;;;;5019476;28;20029;-80
2023/06/12 00:47:13;;;;;;;4.80;3.65;;;;;;;;;;5021064;28;20155;-80
2023/06/12 00:49:38;;;;;;;8.82;4.03;;;;;;;;;;5025998;28;20018;-80
2023/06/12 00:52:04;;;;;;;6.22;4.20;;;;;;;;;;5025725;28;20024;-81
2023/06/12 00:54:29;;;;;;;7.95;4.07;;;;;;;;;;5025851;28;20492;-81
2023/06/12 00:56:56;;;;;;;5.32;3.83;;;;;;;;;;5026000;28;20041;-81
2023/06/12 00:59:22;;;;;;;6.20;4.05;;;;;;;;;;5024988;28;20026;-80
2023/06/12 01:01:47;;;;;;;5.32;4.15;;;;;;;;;;5023319;28;20095;-80
2023/06/12 01:04:12;;;;;;;5.07;3.78;;;;;;;;;;5024358;28;20045;-80
2023/06/12 01:07:06;;;;;;;4.80;3.83;;;;;;;;;;5019751;28;20469;-80
2023/06/12 01:09:51;;;;;;;6.22;3.70;;;;;;;;;;5018904;28;20481;-80
2023/06/12 01:12:17;;;;;;;8.73;3.80;;;;;;;;;;5018665;28;20041;-80
2023/06/12 01:14:45;;;;;;;4.70;3.80;;;;;;;;;;5018471;28;20065;-80
2023/06/12 01:17:11;;;;;;;6.07;3.58;;;;;;;;;;5018672;28;20045;-80
2023/06/12 01:19:36;;;;;;;4.40;3.58;;;;;;;;;;5017948;28;20477;-80
2023/06/12 01:22:08;;;;;;;4.45;3.67;;;;;;;;;;5018442;28;20041;-80
2023/06/12 01:25:03;;;;;;;5.22;4.00;;;;;;;;;;5018925;28;20029;-80
2023/06/12 01:27:51;;;;;;;5.78;3.67;;;;;;;;;;5017613;28;20121;-80
2023/06/12 01:30:42;;;;;;;5.25;3.97;;;;;;;;;;5017328;28;20033;-80
2023/06/12 01:33:13;;;;;;;6.13;3.75;;;;;;;;;;5017989;28;20109;-80
2023/06/12 01:35:40;;;;;;;5.47;3.42;;;;;;;;;;5016624;28;20489;-79
2023/06/12 01:38:17;;;;;;;7.82;3.65;;;;;;;;;;5018817;28;20028;-81
2023/06/12 01:40:45;;;;;;;5.65;3.45;;;;;;;;;;5021998;28;20022;-82
2023/06/12 01:43:10;;;;;;;5.30;3.72;;;;;;;;;;5020097;28;20523;-81
2023/06/12 01:45:35;;;;;;;7.97;3.92;;;;;;;;;;5019343;28;20105;-80
2023/06/12 01:48:00;;;;;;;6.53;3.90;;;;;;;;;;5020785;28;20025;-80
2023/06/12 01:50:26;;;;;;;11.95;3.83;;;;;;;;;;5019209;28;20257;-80
2023/06/12 01:52:51;;;;;;;6.43;3.60;;;;;;;;;;5016735;28;20030;-81
2023/06/12 01:55:19;;;;;;;5.63;3.67;;;;;;;;;;5016327;28;20754;-78
2023/06/12 01:57:44;;;;;;;5.32;3.72;;;;;;;;;;5017271;28;20270;-77
2023/06/12 02:00:11;;;;;;;6.80;3.78;;;;;;;;;;5014776;28;20022;-77
2023/06/12 02:02:36;;;;;;;6.28;3.45;;;;;;;;;;5016889;28;20182;-78
2023/06/12 02:05:01;;;;;;;5.63;3.90;;;;;;;;;;5017125;28;20036;-79
2023/06/12 02:07:26;;;;;;;6.23;3.77;;;;;;;;;;5016417;28;20124;-79
2023/06/12 02:09:52;;;;;;;6.18;3.63;;;;;;;;;;5017895;28;20263;-81
2023/06/12 02:12:17;;;;;;;6.73;3.40;;;;;;;;;;5017859;28;20060;-77
2023/06/12 02:14:42;;;;;;;6.55;3.75;;;;;;;;;;5018009;28;20330;-79
2023/06/12 02:17:07;;;;;;;5.67;3.70;;;;;;;;;;5016667;28;20038;-79
2023/06/12 02:19:33;;;;;;;4.25;3.42;;;;;;;;;;5018183;28;20271;-78
2023/06/12 02:21:59;;;;;;;6.05;3.63;;;;;;;;;;5019177;28;20112;-80
2023/06/12 02:24:26;;;;;;;7.95;3.60;;;;;;;;;;5020304;28;20038;-79
2023/06/12 02:26:51;;;;;;;6.55;3.50;;;;;;;;;;5018144;28;20034;-78
2023/06/12 02:29:17;;;;;;;8.63;3.60;;;;;;;;;;5018465;28;20079;-79
2023/06/12 02:31:42;;;;;;;9.65;3.50;;;;;;;;;;5017906;28;20401;-79
2023/06/12 02:34:07;;;;;;;5.10;3.40;;;;;;;;;;5015577;28;20032;-78
2023/06/12 02:36:39;;;;;;;5.20;3.33;;;;;;;;;;5016249;28;20256;-79
2023/06/12 02:39:05;;;;;;;5.13;3.63;;;;;;;;;;5017093;28;20028;-81
2023/06/12 02:41:30;;;;;;;6.88;3.70;;;;;;;;;;5017517;28;20112;-79
2023/06/12 02:43:55;;;;;;;8.00;3.50;;;;;;;;;;5016068;28;20029;-79
2023/06/12 02:46:21;;;;;;;4.20;3.50;;;;;;;;;;5018123;28;20275;-81
2023/06/12 02:48:46;;;;;;;7.20;3.60;;;;;;;;;;5016404;28;20268;-81
2023/06/12 02:51:11;;;;;;;9.23;3.60;;;;;;;;;;5020223;28;20262;-82
2023/06/12 02:53:36;;;;;;;5.60;3.70;;;;;;;;;;5021397;28;20041;-81
2023/06/12 02:56:02;;;;;;;6.37;3.67;;;;;;;;;;5020581;28;20302;-81
2023/06/12 02:58:27;;;;;;;6.80;3.97;;;;;;;;;;5017367;28;20259;-80
2023/06/12 03:00:52;;;;;;;5.67;3.40;;;;;;;;;;5018271;28;20478;-79
2023/06/12 03:03:20;;;;;;;5.00;3.42;;;;;;;;;;5016830;28;20271;-81
2023/06/12 03:05:46;;;;;;;7.32;3.72;;;;;;;;;;5017695;28;20503;-79
2023/06/12 03:08:12;;;;;;;7.65;3.60;;;;;;;;;;5018757;28;20025;-79
2023/06/12 03:10:38;;;;;;;5.53;3.67;;;;;;;;;;5022942;28;20014;-79
2023/06/12 03:13:03;;;;;;;7.90;3.70;;;;;;;;;;5023338;28;20056;-80
2023/06/12 03:15:28;;;;;;;6.13;3.78;;;;;;;;;;5023223;28;20259;-80
2023/06/12 03:17:53;;;;;;;5.38;3.70;;;;;;;;;;5022359;28;20501;-80
2023/06/12 03:20:19;;;;;;;6.97;3.40;;;;;;;;;;5021512;28;20029;-80
2023/06/12 03:22:44;;;;;;;5.38;3.53;;;;;;;;;;5022542;28;20266;-79
2023/06/12 03:25:10;;;;;;;4.72;3.53;;;;;;;;;;5022541;28;20507;-80
2023/06/12 03:27:36;;;;;;;7.82;3.80;;;;;;;;;;5023415;28;20029;-81
2023/06/12 03:30:02;;;;;;;6.40;4.00;;;;;;;;;;5020987;28;20025;-80
2023/06/12 03:32:28;;;;;;;6.50;3.30;;;;;;;;;;5020066;28;20416;-80
2023/06/12 03:34:54;;;;;;;5.93;3.80;;;;;;;;;;5017416;28;20022;-80
2023/06/12 03:37:19;;;;;;;7.03;3.78;;;;;;;;;;5018968;28;20030;-79
2023/06/12 03:39:44;;;;;;;9.10;3.67;;;;;;;;;;5019896;28;20056;-80
2023/06/12 03:42:10;;;;;;;7.07;4.30;;;;;;;;;;5019114;28;20074;-80
2023/06/12 03:44:36;;;;;;;7.07;4.20;;;;;;;;;;5017461;28;20286;-80
2023/06/12 03:47:01;;;;;;;8.95;4.05;;;;;;;;;;5018813;28;20029;-80
2023/06/12 03:49:26;;;;;;;6.93;3.58;;;;;;;;;;5016471;28;20030;-81
2023/06/12 03:51:51;;;;;;;6.30;3.60;;;;;;;;;;5016886;28;20034;-80
2023/06/12 03:54:18;;;;;;;7.75;3.95;;;;;;;;;;5016403;28;20274;-81
2023/06/12 03:56:43;;;;;;;6.88;3.60;;;;;;;;;;5017593;28;20465;-81
2023/06/12 03:59:08;;;;;;;4.40;3.60;;;;;;;;;;5016775;28;20102;-81
2023/06/12 04:01:33;;;;;;;8.00;3.70;;;;;;;;;;5015939;28;20295;-80
2023/06/12 04:04:00;;;;;;;4.83;3.60;;;;;;;;;;5014693;28;20025;-80
2023/06/12 04:06:25;;;;;;;6.50;3.92;;;;;;;;;;5016548;28;20270;-79
2023/06/12 04:08:53;;;;;;;6.37;3.90;;;;;;;;;;5015944;28;20030;-80
2023/06/12 04:11:19;;;;;;;9.02;3.65;;;;;;;;;;5016306;28;20299;-80
2023/06/12 04:13:45;;;;;;;5.38;3.70;;;;;;;;;;5016720;28;20045;-80
2023/06/12 04:16:10;;;;;;;5.68;3.58;;;;;;;;;;5018706;28;20032;-80
2023/06/12 04:18:37;;;;;;;6.70;3.50;;;;;;;;;;5018180;28;20048;-82
2023/06/12 04:21:06;;;;;;;6.53;4.00;;;;;;;;;;5017328;28;20026;-81
2023/06/12 04:23:32;;;;;;;6.50;3.78;;;;;;;;;;5017099;28;20029;-81
2023/06/12 04:26:04;;;;;;;8.60;3.83;;;;;;;;;;5020098;28;20022;-80
2023/06/12 04:28:31;;;;;;;5.35;3.83;;;;;;;;;;5022850;28;20025;-80
2023/06/12 04:30:57;;;;;;;5.95;3.63;;;;;;;;;;5020129;28;20026;-80
2023/06/12 04:33:23;;;;;;;8.55;4.13;;;;;;;;;;5019432;28;20021;-81
2023/06/12 04:35:49;;;;;;;10.45;4.10;;;;;;;;;;5020088;28;20164;-81
2023/06/12 04:38:14;;;;;;;4.63;3.38;;;;;;;;;;5021307;28;20076;-80
2023/06/12 04:40:39;;;;;;;7.90;3.80;;;;;;;;;;5021141;28;20018;-80
2023/06/12 04:43:06;;;;;;;8.80;3.37;;;;;;;;;;5018515;28;20034;-80
2023/06/12 04:45:32;;;;;;;8.77;3.55;;;;;;;;;;5017958;28;20255;-79
2023/06/12 04:47:57;;;;;;;7.32;3.70;;;;;;;;;;5016048;28;20400;-80
2023/06/12 04:50:23;;;;;;;5.20;3.50;;;;;;;;;;5018963;28;20101;-80
2023/06/12 04:52:48;;;;;;;4.63;3.53;;;;;;;;;;5017613;28;20033;-80
2023/06/12 04:55:16;;;;;;;6.27;3.40;;;;;;;;;;5019386;28;20519;-80
2023/06/12 04:57:43;;;;;;;5.00;3.47;;;;;;;;;;5018656;28;20278;-80
2023/06/12 05:00:13;;;;;;;4.70;3.60;;;;;;;;;;5018137;28;20461;-81
2023/06/12 05:02:38;;;;;;;6.47;3.42;;;;;;;;;;5014991;28;20041;-79
2023/06/12 05:05:04;;;;;;;4.93;3.50;;;;;;;;;;5015355;28;20029;-79
2023/06/12 05:07:34;;;;;;;6.57;3.75;;;;;;;;;;5015399;28;20262;-80
2023/06/12 05:09:59;;;;;;;6.13;3.50;;;;;;;;;;5014090;28;20044;-79
2023/06/12 05:12:24;;;;;;;5.32;3.35;;;;;;;;;;5014148;28;20485;-78
2023/06/12 05:14:49;;;;;;;16.73;3.73;;;;;;;;;;5016066;28;20030;-79
2023/06/12 05:17:15;;;;;;;5.32;3.50;;;;;;;;;;5019432;28;20255;-79
2023/06/12 05:19:40;;;;;;;5.57;3.38;;;;;;;;;;5020694;28;20070;-82
2023/06/12 05:22:06;;;;;;;6.68;3.80;;;;;;;;;;5017878;28;20053;-79
2023/06/12 05:24:31;;;;;;;6.32;3.60;;;;;;;;;;5015985;28;20053;-79
2023/06/12 05:26:57;;;;;;;6.57;3.47;;;;;;;;;;5015992;28;20029;-78
2023/06/12 05:29:22;;;;;;;8.70;3.65;;;;;;;;;;5015776;28;20018;-79
2023/06/12 05:31:47;;;;;;;7.97;3.53;;;;;;;;;;5015588;28;20076;-77
2023/06/12 05:34:12;;;;;;;5.20;3.57;;;;;;;;;;5015447;28;20279;-79
2023/06/12 05:36:38;;;;;;;8.63;3.67;;;;;;;;;;5019224;28;20259;-78
2023/06/12 05:39:04;;;;;;;5.75;3.70;;;;;;;;;;5023549;28;20343;-80
2023/06/12 05:41:30;;;;;;;6.43;3.75;;;;;;;;;;5020487;28;20077;-75
2023/06/12 05:43:55;;;;;;;7.22;4.18;;;;;;;;;;5015999;28;20570;-75
2023/06/12 05:46:21;;;;;;;5.60;3.50;;;;;;;;;;5014494;28;20026;-75
2023/06/12 05:48:46;;;;;;;8.55;3.38;;;;;;;;;;5015890;28;20648;-75
2023/06/12 05:51:14;;;;;;;4.70;3.53;;;;;;;;;;5014538;28;20032;-73
2023/06/12 05:53:44;;;;;;;4.32;3.08;;;;;;;;;;5016189;28;20682;-73
2023/06/12 05:56:10;;;;;;;8.75;3.45;;;;;;;;;;5015649;28;20076;-75
2023/06/12 05:58:36;;;;;;;5.50;3.28;;;;;;;;;;5017355;28;20026;-76
2023/06/12 06:01:04;;;;;;;4.80;3.23;;;;;;;;;;5015830;28;20032;-76
2023/06/12 06:03:32;;;;;;;8.85;3.53;;;;;;;;;;5015823;28;20314;-77
2023/06/12 06:05:58;;;;;;;5.90;3.40;;;;;;;;;;5016825;28;20364;-76
2023/06/12 06:08:23;;;;;;;10.60;3.40;;;;;;;;;;5015487;28;20097;-76
2023/06/12 06:10:48;;;;;;;5.95;3.15;;;;;;;;;;5015138;28;20097;-76
2023/06/12 06:13:13;;;;;;;6.70;2.80;;;;;;;;;;5015031;28;20396;-76
2023/06/12 06:15:38;;;;;;;9.40;3.67;;;;;;;;;;5014988;28;20385;-76
2023/06/12 06:18:04;;;;;;;6.20;2.60;;;;;;;;;;5015323;28;20073;-77
2023/06/12 06:20:29;;;;;;;5.68;3.15;;;;;;;;;;5015267;28;20323;-76
2023/06/12 06:22:54;;;;;;;9.57;2.80;;;;;;;;;;5014673;28;20037;-76
2023/06/12 06:25:20;;;;;;;5.70;3.30;;;;;;;;;;5014786;28;20274;-76
2023/06/12 06:27:46;;;;;;;6.32;2.95;;;;;;;;;;5015304;28;20259;-76
2023/06/12 06:30:14;;;;;;;7.25;2.90;;;;;;;;;;5013615;28;20041;-74
2023/06/12 06:32:39;;;;;;;4.35;2.67;;;;;;;;;;5013997;28;20032;-76
2023/06/12 06:35:05;;;;;;;4.15;2.70;;;;;;;;;;5014653;28;20021;-76
2023/06/12 06:37:30;;;;;;;9.02;3.13;;;;;;;;;;5015266;28;20045;-79
2023/06/12 06:39:55;;;;;;;7.30;3.10;;;;;;;;;;5015033;28;20048;-77
2023/06/12 06:42:21;;;;;;;7.20;2.90;;;;;;;;;;5014743;28;20259;-76
2023/06/12 06:44:46;;;;;;;3.87;2.63;;;;;;;;;;5014593;28;20270;-77
2023/06/12 06:47:12;;;;;;;7.03;2.83;;;;;;;;;;5014959;28;20259;-78
2023/06/12 06:49:38;;;;;;;5.95;4.78;;;;;;;;;;5014646;28;20022;-77
2023/06/12 06:52:04;;;;;;;8.70;3.08;;;;;;;;;;5013822;28;20027;-77
2023/06/12 06:54:29;;;;;;;4.30;2.72;;;;;;;;;;5014357;28;20076;-77
2023/06/12 06:56:56;;;;;;;5.13;2.90;;;;;;;;;;5014312;28;20484;-77
2023/06/12 06:59:22;;;;;;;4.55;2.75;;;;;;;;;;5012981;28;20026;-77
2023/06/12 07:01:47;;;;;;;4.63;2.70;;;;;;;;;;5014139;28;20507;-76
2023/06/12 07:04:12;;;;;;;7.95;3.20;;;;;;;;;;5012997;28;20622;-76
2023/06/12 07:06:37;;;;;;;5.63;2.77;;;;;;;;;;5014417;28;20113;-77
2023/06/12 07:09:03;;;;;;;6.72;3.10;;;;;;;;;;5014341;28;20275;-77
2023/06/12 07:11:28;;;;;;;5.30;2.75;;;;;;;;;;5014110;28;20037;-77
2023/06/12 07:13:53;;;;;;;7.57;3.40;;;;;;;;;;5014320;28;20037;-77
2023/06/12 07:16:19;;;;;;;5.15;3.30;;;;;;;;;;5012787;28;20263;-77
2023/06/12 07:18:45;;;;;;;5.72;2.85;;;;;;;;;;5012901;28;20397;-77
2023/06/12 07:21:10;;;;;;;7.18;3.38;;;;;;;;;;5013090;28;20436;-77
2023/06/12 07:23:35;;;;;;;6.43;3.20;;;;;;;;;;5014293;28;20025;-77
2023/06/12 07:26:01;;;;;;;4.80;3.10;;;;;;;;;;5013518;28;20034;-77
2023/06/12 07:28:26;;;;;;;6.00;3.03;;;;;;;;;;5014401;28;20033;-77
2023/06/12 07:30:51;;;;;;;6.70;3.23;;;;;;;;;;5013612;28;20522;-77
2023/06/12 07:33:17;;;;;;;4.47;2.90;;;;;;;;;;5014549;28;20762;-77
2023/06/12 07:35:42;;;;;;;6.65;3.15;;;;;;;;;;5013086;28;20045;-77
2023/06/12 07:38:07;;;;;;;6.68;2.90;;;;;;;;;;5013332;28;20037;-77
2023/06/12 07:40:32;;;;;;;5.78;2.95;;;;;;;;;;5014274;28;20060;-78
2023/06/12 07:42:58;;;;;;;5.30;2.67;;;;;;;;;;5013870;28;20528;-77
2023/06/12 07:45:23;;;;;;;4.45;2.65;;;;;;;;;;5012217;28;20754;-77
2023/06/12 07:47:49;;;;;;;3.60;2.63;;;;;;;;;;5013872;28;20033;-77
2023/06/12 07:50:15;;;;;;;6.85;2.72;;;;;;;;;;5012377;28;20258;-77
2023/06/12 07:52:40;;;;;;;6.45;2.90;;;;;;;;;;5013581;28;20491;-77
2023/06/12 07:55:06;;;;;;;4.53;2.85;;;;;;;;;;5013444;28;20033;-77
2023/06/12 07:57:31;;;;;;;4.85;2.60;;;;;;;;;;5012941;28;20404;-78
2023/06/12 07:59:57;;;;;;;6.33;2.70;;;;;;;;;;5013942;28;20022;-77
2023/06/12 08:02:28;;;;;;;4.90;2.75;;;;;;;;;;5013754;28;20267;-77
2023/06/12 08:04:54;;;;;;;3.83;2.47;;;;;;;;;;5013864;28;20599;-77
2023/06/12 08:07:19;;;;;;;4.18;2.50;;;;;;;;;;5014222;28;20034;-77
2023/06/12 08:09:44;;;;;;;4.97;2.37;;;;;;;;;;5013353;28;20029;-77
2023/06/12 08:12:13;;;;;;;4.88;2.78;;;;;;;;;;5012310;28;20271;-77
2023/06/12 08:14:39;;;;;;;4.35;2.60;;;;;;;;;;5011659;28;20084;-77
2023/06/12 08:17:05;;;;;;;4.13;2.42;;;;;;;;;;5013308;28;20033;-76
2023/06/12 08:19:32;;;;;;;3.80;2.63;;;;;;;;;;5013194;28;20022;-77
2023/06/12 08:21:57;;;;;;;3.00;2.30;;;;;;;;;;5013329;28;20062;-78
2023/06/12 08:24:23;;;;;;;3.45;2.40;;;;;;;;;;5013543;28;20041;-77
2023/06/12 08:26:48;;;;;;;6.20;2.80;;;;;;;;;;5013919;28;20033;-77
2023/06/12 08:29:14;;;;;;;3.53;2.70;;;;;;;;;;5013297;28;20455;-78
2023/06/12 08:31:40;;;;;;;3.17;2.53;;;;;;;;;;5014240;28;20033;-79
2023/06/12 08:34:06;;;;;;;6.32;2.50;;;;;;;;;;5011688;28;20112;-77
2023/06/12 08:36:31;;;;;;;3.92;2.30;;;;;;;;;;5011665;28;20076;-77
2023/06/12 08:38:56;;;;;;;4.50;2.40;;;;;;;;;;5013051;28;20034;-77
2023/06/12 08:41:24;;;;;;;7.93;2.58;;;;;;;;;;5012461;28;20271;-77
2023/06/12 08:43:51;;;;;;;5.93;2.17;;;;;;;;;;5013326;28;20030;-77
2023/06/12 08:46:16;;;;;;;4.20;2.10;;;;;;;;;;5013342;28;20042;-78
2023/06/12 08:48:43;;;;;;;4.03;2.45;;;;;;;;;;5013216;28;20087;-76
2023/06/12 08:51:08;;;;;;;3.72;2.10;;;;;;;;;;5013001;28;20033;-76
2023/06/12 08:53:34;;;;;;;2.90;2.08;;;;;;;;;;5012882;28;20428;-77
2023/06/12 08:56:00;;;;;;;2.25;2.05;;;;;;;;;;5011991;28;20053;-76
2023/06/12 08:58:25;;;;;;;2.93;2.40;;;;;;;;;;5012476;28;20424;-76
2023/06/12 09:00:51;;;;;;;4.68;2.30;;;;;;;;;;5011385;28;20349;-75
2023/06/12 09:03:16;;;;;;;5.45;2.35;;;;;;;;;;5011422;28;20053;-76
2023/06/12 09:05:42;;;;;;;2.95;2.13;;;;;;;;;;5011700;28;20444;-76
2023/06/12 09:08:07;;;;;;;6.25;2.13;;;;;;;;;;5012927;28;20099;-76
2023/06/12 09:10:34;;;;;;;2.75;2.00;;;;;;;;;;5016721;28;20465;-76
2023/06/12 09:13:04;;;;;;;5.75;2.20;;;;;;;;;;5016672;28;20105;-76
2023/06/12 09:15:30;;;;;;;6.18;1.75;;;;;;;;;;5014971;28;20519;-75
2023/06/12 09:17:56;;;;;;;3.33;1.88;;;;;;;;;;5014999;28;20026;-75
2023/06/12 09:20:33;;;;;;;5.10;2.13;;;;;;;;;;5016112;28;20028;-75
2023/06/12 09:23:00;;;;;;;2.15;1.90;;;;;;;;;;5016284;28;20034;-75
2023/06/12 09:25:37;;;;;;;3.25;1.98;;;;;;;;;;5016104;28;20025;-75
2023/06/12 09:28:03;;;;;;;5.65;2.30;;;;;;;;;;5016004;28;20028;-75
2023/06/12 09:30:31;;;;;;;2.60;2.10;;;;;;;;;;5016254;28;20034;-75
2023/06/12 09:32:56;;;;;;;5.57;1.67;;;;;;;;;;5016255;28;20505;-76
2023/06/12 09:35:21;;;;;;;3.35;1.92;;;;;;;;;;5014949;28;20045;-75
2023/06/12 09:37:48;;;;;;;2.77;1.97;;;;;;;;;;5016338;28;20052;-75
2023/06/12 09:40:14;;;;;;;4.60;2.10;;;;;;;;;;5015982;28;20325;-76
2023/06/12 09:42:41;;;;;;;2.40;1.85;;;;;;;;;;5013959;28;20061;-76
2023/06/12 09:45:14;;;;;;;2.72;2.22;;;;;;;;;;5015344;28;20492;-76
2023/06/12 09:47:47;;;;;;;2.55;2.10;;;;;;;;;;5014539;28;20030;-76
2023/06/12 09:50:15;;;;;;;3.40;2.00;;;;;;;;;;5013679;28;20054;-76
2023/06/12 09:52:43;;;;;;;2.05;1.85;;;;;;;;;;5014004;28;20408;-76
2023/06/12 09:55:12;;;;;;;4.10;2.45;;;;;;;;;;5015444;28;20440;-75
2023/06/12 09:57:38;;;;;;;7.00;1.98;;;;;;;;;;5014143;28;20040;-75
2023/06/12 10:00:11;;;;;;;2.78;2.00;;;;;;;;;;5014100;28;20018;-75
2023/06/12 10:02:40;;;;;;;3.70;1.98;;;;;;;;;;5014150;28;20422;-75
2023/06/12 10:05:16;;;;;;;4.05;2.20;;;;;;;;;;5014129;28;20106;-75
2023/06/12 10:07:47;;;;;;;4.15;2.28;;;;;;;;;;5014428;28;20017;-75
2023/06/12 10:10:13;;;;;;;5.70;2.35;;;;;;;;;;5013764;28;20029;-75
2023/06/12 10:12:40;;;;;;;3.80;1.83;;;;;;;;;;5015278;28;20456;-75
2023/06/12 10:15:07;;;;;;;2.55;2.13;;;;;;;;;;5015184;28;20388;-74
2023/06/12 10:17:33;;;;;;;9.27;2.10;;;;;;;;;;5015141;28;20022;-75
2023/06/12 10:19:59;;;;;;;3.08;2.10;;;;;;;;;;5013134;28;20028;-74
2023/06/12 10:22:24;;;;;;;2.80;2.13;;;;;;;;;;5014299;28;20025;-75
2023/06/12 10:24:50;;;;;;;3.40;2.05;;;;;;;;;;5015154;28;20168;-75
2023/06/12 10:27:17;;;;;;;4.15;2.05;;;;;;;;;;5015057;28;20038;-74
2023/06/12 10:29:43;;;;;;;4.20;2.08;;;;;;;;;;5014900;28;20022;-73
2023/06/12 10:32:10;;;;;;;4.43;2.10;;;;;;;;;;5015031;28;20076;-74
2023/06/12 10:34:40;;;;;;;2.88;1.98;;;;;;;;;;5015017;28;20037;-73
2023/06/12 10:37:28;;;;;;;3.72;2.00;;;;;;;;;;5014852;28;20444;-74
2023/06/12 10:40:15;;;;;;;7.45;2.25;;;;;;;;;;5014973;28;20405;-74
2023/06/12 10:43:01;;;;;;;5.38;1.95;;;;;;;;;;5013636;28;20029;-74
2023/06/12 10:45:28;;;;;;;7.22;2.40;;;;;;;;;;5011825;28;20080;-74
2023/06/12 10:48:02;;;;;;;3.92;2.20;;;;;;;;;;5014567;28;20026;-73
2023/06/12 10:50:31;;;;;;;2.67;2.00;;;;;;;;;;5014501;28;20022;-74
2023/06/12 10:53:00;;;;;;;5.18;2.30;;;;;;;;;;5013952;28;20025;-74
2023/06/12 10:55:28;;;;;;;7.25;2.30;;;;;;;;;;5014273;28;20473;-74
2023/06/12 10:57:56;;;;;;;2.30;2.05;;;;;;;;;;5014310;28;20065;-75
2023/06/12 11:00:27;;;;;;;3.58;2.00;;;;;;;;;;5014216;28;20057;-74
2023/06/12 11:03:11;;;;;;;4.38;2.13;;;;;;;;;;5014177;28;20033;-74
2023/06/12 11:05:37;;;;;;;3.83;1.98;;;;;;;;;;5012792;28;20128;-73
2023/06/12 11:08:04;;;;;;;2.35;1.80;;;;;;;;;;5014132;28;20109;-73
2023/06/12 11:10:30;;;;;;;3.30;2.00;;;;;;;;;;5012759;28;20025;-74
2023/06/12 11:12:56;;;;;;;3.28;2.10;;;;;;;;;;5012823;28;20049;-74
2023/06/12 11:15:22;;;;;;;3.78;2.00;;;;;;;;;;5014223;28;20029;-74
2023/06/12 11:17:48;;;;;;;2.95;2.08;;;;;;;;;;5012748;28;20037;-74
2023/06/12 11:20:14;;;;;;;3.28;2.13;;;;;;;;;;5013841;28;20026;-73
2023/06/12 11:22:40;;;;;;;3.83;1.92;;;;;;;;;;5014646;28;20378;-75
2023/06/12 11:25:06;;;;;;;3.08;2.13;;;;;;;;;;5014375;28;20029;-74
2023/06/12 11:27:33;;;;;;;3.38;2.05;;;;;;;;;;5015390;28;20461;-80
2023/06/12 11:30:12;;;;;;;3.33;2.00;;;;;;;;;;5017620;28;20022;-78
2023/06/12 11:32:38;;;;;;;4.53;2.08;;;;;;;;;;5017649;28;20036;-81
2023/06/12 11:35:06;;;;;;;6.00;2.50;;;;;;;;;;5015952;28;20026;-80
2023/06/12 11:37:32;;;;;;;5.00;2.22;;;;;;;;;;5020323;28;20101;-80
2023/06/12 11:40:08;;;;;;;5.40;2.10;;;;;;;;;;5016808;28;20507;-79
2023/06/12 11:42:39;;;;;;;4.97;2.30;;;;;;;;;;5016090;28;20030;-78
2023/06/12 11:45:13;;;;;;;6.63;2.35;;;;;;;;;;5017932;28;20525;-79
2023/06/12 11:47:43;;;;;;;2.72;2.25;;;;;;;;;;5016934;28;20021;-79
2023/06/12 11:50:11;;;;;;;6.05;2.30;;;;;;;;;;5018718;28;20093;-79
2023/06/12 11:52:39;;;;;;;4.90;2.42;;;;;;;;;;5018638;28;20030;-79
2023/06/12 11:55:06;;;;;;;3.78;2.10;;;;;;;;;;5019226;28;20038;-78
2023/06/12 11:57:32;;;;;;;5.47;2.33;;;;;;;;;;5016558;28;20049;-79
2023/06/12 11:59:58;;;;;;;3.92;2.50;;;;;;;;;;5016595;28;20034;-80
2023/06/12 12:02:41;;;;;;;3.60;2.58;;;;;;;;;;5016799;28;20050;-78
2023/06/12 12:05:16;;;;;;;4.68;2.60;;;;;;;;;;5015345;28;20030;-80
2023/06/12 12:07:45;;;;;;;3.70;1.92;;;;;;;;;;5017417;28;20033;-77
2023/06/12 12:10:14;;;;;;;6.00;2.58;;;;;;;;;;5025585;28;20477;-80
2023/06/12 12:12:50;;;;;;;4.20;2.33;;;;;;;;;;5023499;28;20037;-79
2023/06/12 12:15:20;;;;;;;2.65;1.80;;;;;;;;;;5024720;28;20500;-81
2023/06/12 12:17:47;;;;;;;3.97;2.28;;;;;;;;;;5016330;28;20030;-79
2023/06/12 12:20:15;;;;;;;2.25;1.75;;;;;;;;;;5016199;28;20432;-80
2023/06/12 12:22:41;;;;;;;4.25;2.45;;;;;;;;;;5016028;28;20038;-83
2023/06/12 12:25:15;;;;;;;3.22;2.33;;;;;;;;;;5018588;28;20108;-78
2023/06/12 12:27:40;;;;;;;5.78;2.53;;;;;;;;;;5019774;28;20030;-79
2023/06/12 12:30:06;;;;;;;6.30;2.70;;;;;;;;;;5017989;28;20041;-80
2023/06/12 12:32:32;;;;;;;3.55;2.60;;;;;;;;;;5017680;28;20267;-81
2023/06/12 12:34:57;;;;;;;7.05;2.22;;;;;;;;;;5033887;22;20116;-83
2023/06/12 12:37:51;;;;;;;6.15;3.13;;;;;;;;;;5018872;28;20029;-83
2023/06/12 12:43:27;;;;;;;5.50;2.45;;;;;;;;;;5011262;28;19976;-81
2023/06/12 12:45:53;;;;;;;4.13;2.67;;;;;;;;;;5021136;28;20493;-78
2023/06/12 12:48:18;;;;;;;5.45;2.90;;;;;;;;;;5017905;28;20124;-75
2023/06/12 14:34:26;;;;;;;4.43;2.38;;;;;;;;;;3664083;22;20326;-76
2023/06/12 15:12:44;;;;;;;3.78;2.13;;;;;;;;;;5036968;28;20048;-77
2023/06/12 15:44:51;;;;;;;6.43;2.15;;;;;;;;;;4955738;29;20074;-83
2023/06/12 15:47:19;;;;;;;7.43;2.00;;;;;;;;;;4956916;29;20039;-78
2023/06/12 15:50:07;;;;;;;8.30;2.50;;;;;;;;;;5015838;28;20357;-74
2023/06/12 15:52:33;;;;;;;4.03;2.20;;;;;;;;;;5055458;28;20021;-77
2023/06/12 15:55:00;;;;;;;3.67;2.10;;;;;;;;;;5055492;28;20050;-77
2023/06/12 15:57:31;;;;;;;5.53;2.53;;;;;;;;;;5055065;28;20031;-77
2023/06/12 15:59:57;;;;;;;4.50;2.40;;;;;;;;;;5037450;28;20134;-76
2023/06/12 16:02:24;;;;;;;4.30;2.20;;;;;;;;;;5055232;28;20027;-76
2023/06/12 16:04:52;;;;;;;2.88;2.17;;;;;;;;;;5055127;28;20105;-75
2023/06/12 16:07:17;;;;;;;4.63;2.58;;;;;;;;;;5055533;28;20044;-78
2023/06/12 16:09:43;;;;;;;5.65;2.35;;;;;;;;;;5037433;28;20016;-78
2023/06/12 16:12:11;;;;;;;4.60;2.20;;;;;;;;;;5054671;28;20028;-77
2023/06/12 16:14:36;;;;;;;5.55;2.28;;;;;;;;;;5053500;28;20078;-78
2023/06/12 16:17:02;;;;;;;5.37;2.30;;;;;;;;;;5053535;28;20108;-77
2023/06/12 16:19:38;;;;;;;5.05;2.30;;;;;;;;;;5051769;28;20349;-78
2023/06/12 16:22:03;;;;;;;4.55;2.20;;;;;;;;;;5035137;28;20021;-79
2023/06/12 16:24:29;;;;;;;6.22;2.40;;;;;;;;;;5053433;28;20032;-78
2023/06/12 16:26:54;;;;;;;3.33;2.22;;;;;;;;;;5036616;28;20040;-78
2023/06/12 16:29:21;;;;;;;6.63;2.40;;;;;;;;;;5054344;28;20056;-79
2023/06/12 16:31:47;;;;;;;6.05;2.50;;;;;;;;;;5037580;28;20035;-78
2023/06/12 16:34:12;;;;;;;3.80;2.35;;;;;;;;;;5055892;28;20021;-78
2023/06/12 16:36:37;;;;;;;5.70;2.20;;;;;;;;;;5055650;28;20407;-78
2023/06/12 16:39:03;;;;;;;7.30;2.40;;;;;;;;;;5053391;28;20621;-78
2023/06/12 16:41:29;;;;;;;5.30;2.38;;;;;;;;;;5053463;28;20668;-78
2023/06/12 16:43:55;;;;;;;5.68;2.30;;;;;;;;;;5053750;28;20597;-80
2023/06/12 16:46:20;;;;;;;6.15;2.28;;;;;;;;;;5053414;28;20032;-78
2023/06/12 16:48:45;;;;;;;5.75;2.20;;;;;;;;;;5053327;28;20037;-79
2023/06/12 16:51:13;;;;;;;6.70;2.75;;;;;;;;;;5052667;28;20025;-79
2023/06/12 16:53:39;;;;;;;4.57;2.47;;;;;;;;;;5055013;28;20403;-79
2023/06/12 16:56:04;;;;;;;3.72;2.28;;;;;;;;;;5055335;28;20159;-78
2023/06/12 16:58:30;;;;;;;4.57;2.42;;;;;;;;;;5036312;28;20087;-78
2023/06/12 17:00:55;;;;;;;6.00;2.45;;;;;;;;;;5056070;28;20025;-78
2023/06/12 17:03:21;;;;;;;7.90;2.47;;;;;;;;;;5055090;28;20056;-78
2023/06/12 17:05:46;;;;;;;5.63;2.40;;;;;;;;;;5055665;28;20717;-79
2023/06/12 17:08:11;;;;;;;8.50;2.43;;;;;;;;;;5053836;28;20352;-77
2023/06/12 17:10:36;;;;;;;6.20;2.30;;;;;;;;;;5054486;28;20788;-79
2023/06/12 17:13:01;;;;;;;4.47;2.20;;;;;;;;;;5034842;28;20060;-79
2023/06/12 17:15:27;;;;;;;5.47;2.50;;;;;;;;;;5054088;28;20258;-78
2023/06/12 17:17:52;;;;;;;5.90;2.33;;;;;;;;;;5036168;28;20254;-78
2023/06/12 17:20:17;;;;;;;5.05;2.25;;;;;;;;;;5052644;28;20277;-77
2023/06/12 17:22:42;;;;;;;6.80;2.27;;;;;;;;;;5053822;28;20100;-78
2023/06/12 17:25:08;;;;;;;2.93;2.20;;;;;;;;;;5037756;28;20118;-78
2023/06/12 17:27:33;;;;;;;5.32;2.40;;;;;;;;;;5036242;28;20270;-78
2023/06/12 17:29:58;;;;;;;3.50;2.23;;;;;;;;;;5056221;28;20021;-79
2023/06/12 17:32:24;;;;;;;5.43;2.17;;;;;;;;;;5057678;28;20065;-78
2023/06/12 17:34:49;;;;;;;2.83;2.22;;;;;;;;;;5059343;28;20258;-78